createdAt,value
2018-06-11T00:00:50.565Z,9.50
2018-06-11T00:03:19.103Z,9.20
2018-06-11T00:05:47.156Z,8.47
2018-06-11T00:08:15.449Z,8.63
2018-06-11T00:10:43.843Z,8.90
2018-06-11T00:13:12.552Z,9.07
2018-06-11T00:15:40.771Z,8.80
2018-06-11T00:18:08.941Z,9.37
2018-06-11T00:20:37.090Z,8.37
2018-06-11T00:23:05.119Z,8.20
2018-06-11T00:25:33.272Z,7.90
2018-06-11T00:28:01.498Z,7.77
2018-06-11T00:30:29.628Z,7.10
2018-06-11T00:32:57.676Z,6.83
2018-06-11T00:35:25.827Z,7.63
2018-06-11T00:37:53.881Z,8.17
2018-06-11T00:40:21.917Z,8.07
2018-06-11T00:42:50.075Z,7.27
2018-06-11T00:45:18.605Z,7.50
2018-06-11T00:47:46.662Z,7.07
2018-06-11T00:50:14.771Z,7.90
2018-06-11T00:52:42.757Z,8.10
2018-06-11T00:55:12.689Z,7.73
2018-06-11T00:57:41.110Z,7.63
2018-06-11T01:00:09.421Z,6.97
2018-06-11T01:02:37.825Z,8.20
2018-06-11T01:05:05.875Z,7.80
2018-06-11T01:07:33.858Z,7.27
2018-06-11T01:10:02.979Z,7.00
2018-06-11T01:12:31.003Z,7.90
2018-06-11T01:14:59.068Z,6.30
2018-06-11T01:17:27.085Z,6.97
2018-06-11T01:19:55.095Z,7.60
2018-06-11T01:22:23.081Z,7.30
2018-06-11T01:24:51.184Z,6.93
2018-06-11T01:27:19.177Z,8.20
2018-06-11T01:29:47.165Z,7.23
2018-06-11T01:32:16.005Z,6.43
2018-06-11T01:34:44.069Z,7.60
2018-06-11T01:37:12.887Z,7.90
2018-06-11T01:39:40.924Z,6.70
2018-06-11T01:42:09.448Z,7.00
2018-06-11T01:44:38.348Z,7.30
2018-06-11T01:47:06.853Z,7.00
2018-06-11T01:49:35.000Z,7.03
2018-06-11T01:52:04.077Z,8.00
2018-06-11T01:54:32.100Z,6.60
2018-06-11T01:57:00.225Z,6.07
2018-06-11T01:59:28.258Z,5.73
2018-06-11T02:01:56.272Z,6.33
2018-06-11T02:04:25.050Z,5.80
2018-06-11T02:06:53.405Z,6.77
2018-06-11T02:09:21.431Z,6.70
2018-06-11T02:11:49.405Z,6.30
2018-06-11T02:14:17.399Z,5.90
2018-06-11T02:16:45.628Z,5.40
2018-06-11T02:19:13.613Z,6.50
2018-06-11T02:21:41.612Z,5.90
2018-06-11T02:24:09.625Z,6.93
2018-06-11T02:26:37.604Z,6.73
2018-06-11T02:29:05.593Z,6.30
2018-06-11T02:31:33.628Z,5.20
2018-06-11T02:34:02.449Z,6.57
2018-06-11T02:36:30.473Z,5.43
2018-06-11T02:38:58.526Z,5.00
2018-06-11T02:41:27.117Z,4.73
2018-06-11T02:43:55.280Z,4.60
2018-06-11T02:46:23.441Z,5.10
2018-06-11T02:48:51.432Z,5.27
2018-06-11T02:51:19.423Z,4.97
2018-06-11T02:53:47.471Z,4.60
2018-06-11T02:56:15.596Z,5.10
2018-06-11T02:58:43.590Z,4.77
2018-06-11T03:01:12.799Z,6.00
2018-06-11T03:03:41.198Z,4.67
2018-06-11T03:06:09.209Z,5.83
2018-06-11T03:08:37.221Z,6.23
2018-06-11T03:11:05.435Z,5.40
2018-06-11T03:13:33.413Z,5.10
2018-06-11T03:16:01.636Z,5.67
2018-06-11T03:18:30.162Z,5.70
2018-06-11T03:20:58.138Z,5.20
2018-06-11T03:23:26.185Z,5.87
2018-06-11T03:25:54.203Z,4.70
2018-06-11T03:28:22.226Z,9.50
2018-06-11T03:30:50.272Z,5.97
2018-06-11T03:33:18.367Z,5.80
2018-06-11T03:35:46.628Z,5.20
2018-06-11T03:38:14.654Z,4.90
2018-06-11T03:40:42.656Z,5.27
2018-06-11T03:43:10.639Z,6.63
2018-06-11T03:45:38.659Z,5.03
2018-06-11T03:48:06.854Z,5.00
2018-06-11T03:50:34.874Z,5.90
2018-06-11T03:53:02.923Z,5.60
2018-06-11T03:55:30.919Z,6.00
2018-06-11T03:57:59.948Z,5.10
2018-06-11T04:00:28.247Z,5.70
2018-06-11T04:02:56.239Z,6.60
2018-06-11T04:05:24.231Z,6.40
2018-06-11T04:07:52.448Z,5.90
2018-06-11T04:10:20.442Z,6.33
2018-06-11T04:12:48.443Z,5.77
2018-06-11T04:15:16.483Z,5.90
2018-06-11T04:17:44.484Z,6.23
2018-06-11T04:20:12.812Z,5.93
2018-06-11T04:22:41.220Z,6.67
2018-06-11T04:25:09.217Z,6.43
2018-06-11T04:27:37.246Z,6.50
2018-06-11T04:30:07.559Z,7.13
2018-06-11T04:32:35.550Z,6.87
2018-06-11T04:35:04.223Z,6.90
2018-06-11T04:37:32.250Z,6.60
2018-06-11T04:40:11.521Z,7.37
2018-06-11T04:42:39.532Z,6.97
2018-06-11T04:45:07.521Z,6.40
2018-06-11T04:47:35.557Z,5.90
2018-06-11T04:50:03.993Z,7.20
2018-06-11T04:52:32.618Z,5.87
2018-06-11T04:55:00.646Z,6.93
2018-06-11T04:57:28.933Z,7.03
2018-06-11T04:59:56.905Z,7.23
2018-06-11T05:02:24.903Z,6.60
2018-06-11T05:04:52.924Z,6.60
2018-06-11T05:07:44.134Z,7.80
2018-06-11T05:46:04.364Z,7.33
2018-06-11T05:48:43.318Z,6.90
2018-06-11T05:51:12.288Z,6.50
2018-06-11T05:53:40.276Z,8.17
2018-06-11T05:56:12.546Z,7.00
2018-06-11T06:01:35.027Z,7.40
2018-06-11T06:04:03.360Z,6.50
2018-06-11T06:06:32.067Z,6.90
2018-06-11T06:09:00.073Z,7.87
2018-06-11T06:11:28.129Z,7.83
2018-06-11T06:13:56.719Z,7.50
2018-06-11T06:16:24.757Z,6.57
2018-06-11T06:18:53.564Z,6.50
2018-06-11T06:21:21.792Z,7.23
2018-06-11T06:23:49.960Z,5.87
2018-06-11T06:26:19.198Z,6.80
2018-06-11T06:28:48.109Z,6.73
2018-06-11T06:31:16.150Z,6.57
2018-06-11T06:33:44.168Z,7.60
2018-06-11T06:36:12.155Z,6.67
2018-06-11T06:38:43.648Z,5.57
2018-06-11T06:41:11.854Z,6.90
2018-06-11T06:43:39.904Z,7.80
2018-06-11T06:46:08.299Z,6.97
2018-06-11T06:48:36.292Z,6.17
2018-06-11T06:51:04.658Z,6.40
2018-06-11T06:53:33.754Z,6.17
2018-06-11T06:56:02.598Z,5.60
2018-06-11T06:58:30.701Z,5.50
2018-06-11T07:00:58.774Z,5.70
2018-06-11T07:03:27.552Z,5.70
2018-06-11T07:05:56.229Z,6.07
2018-06-11T07:08:24.262Z,6.47
2018-06-11T07:10:58.331Z,5.80
2018-06-11T07:13:27.697Z,5.53
2018-06-11T07:15:55.779Z,5.67
2018-06-11T07:18:23.759Z,5.43
2018-06-11T07:20:59.106Z,6.33
2018-06-11T07:28:30.672Z,5.37
2018-06-11T07:30:58.643Z,6.10
2018-06-11T07:33:27.253Z,5.60
2018-06-11T07:35:55.348Z,6.23
2018-06-11T07:38:23.336Z,6.37
2018-06-11T07:44:16.167Z,5.83
2018-06-11T07:56:24.853Z,6.20
2018-06-11T07:58:52.927Z,6.73
2018-06-11T08:01:21.145Z,7.27
2018-06-11T08:03:49.155Z,6.23
2018-06-11T08:06:17.597Z,6.93
2018-06-11T08:08:45.609Z,7.07
2018-06-11T08:11:13.679Z,6.17
2018-06-11T08:13:41.883Z,5.30
2018-06-11T08:16:09.845Z,6.40
2018-06-11T08:18:38.774Z,6.00
2018-06-11T08:21:07.131Z,5.13
2018-06-11T08:23:35.270Z,6.30
2018-06-11T08:26:03.967Z,6.00
2018-06-11T08:28:31.973Z,6.30
2018-06-11T08:30:59.977Z,7.40
2018-06-11T08:33:28.365Z,6.20
2018-06-11T08:35:56.790Z,7.33
2018-06-11T08:38:25.335Z,7.13
2018-06-11T08:40:53.500Z,6.90
2018-06-11T08:43:22.567Z,7.03
2018-06-11T08:45:50.553Z,5.80
2018-06-11T08:48:19.180Z,5.70
2018-06-11T08:50:47.184Z,6.47
2018-06-11T08:53:15.758Z,5.83
2018-06-11T08:55:44.057Z,7.13
2018-06-11T08:58:12.219Z,6.07
2018-06-11T09:00:40.366Z,5.60
2018-06-11T09:03:08.384Z,5.47
2018-06-11T09:05:36.420Z,6.60
2018-06-11T09:08:04.452Z,8.30
2018-06-11T09:10:32.557Z,7.10
2018-06-11T09:13:00.612Z,7.67
2018-06-11T09:15:28.648Z,6.13
2018-06-11T09:17:57.588Z,6.63
2018-06-11T09:33:32.486Z,6.73
2018-06-11T09:36:00.656Z,7.53
2018-06-11T09:38:28.709Z,7.80
2018-06-11T09:40:56.744Z,7.80
2018-06-11T09:43:26.538Z,6.50
2018-06-11T09:45:54.541Z,7.47
2018-06-11T09:48:22.755Z,7.20
2018-06-11T09:50:50.848Z,7.90
2018-06-11T09:53:19.882Z,8.20
2018-06-11T09:55:48.604Z,7.30
2018-06-11T09:58:16.575Z,6.90
2018-06-11T10:00:44.823Z,7.27
2018-06-11T10:03:12.853Z,6.30
2018-06-11T10:05:41.238Z,7.60
2018-06-11T10:08:09.629Z,8.00
2018-06-11T10:10:37.677Z,6.70
2018-06-11T10:13:05.922Z,6.00
2018-06-11T10:28:29.041Z,7.30
2018-06-11T10:30:57.037Z,7.67
2018-06-11T10:33:25.311Z,9.07
2018-06-11T10:35:53.750Z,7.77
2018-06-11T10:38:21.885Z,7.80
2018-06-11T10:40:50.056Z,7.97
2018-06-11T10:43:18.688Z,7.70
2018-06-11T10:45:47.557Z,9.70
2018-06-11T10:48:16.388Z,8.13
2018-06-11T10:50:44.617Z,7.67
2018-06-11T10:53:13.305Z,6.60
2018-06-11T10:55:41.524Z,7.20
2018-06-11T10:58:09.772Z,7.80
2018-06-11T11:00:38.199Z,7.37
2018-06-11T11:03:06.310Z,8.10
2018-06-11T11:05:34.421Z,7.60
2018-06-11T11:08:04.095Z,7.70
2018-06-11T11:10:32.102Z,7.07
2018-06-11T11:13:00.427Z,8.57
2018-06-11T11:15:28.617Z,8.50
2018-06-11T11:17:57.426Z,8.90
2018-06-11T11:20:25.573Z,8.43
2018-06-11T11:22:53.731Z,7.83
2018-06-11T11:25:21.723Z,7.17
2018-06-11T11:27:49.850Z,7.70
2018-06-11T11:30:17.957Z,8.80
2018-06-11T11:32:46.467Z,7.77
2018-06-11T11:35:14.558Z,7.10
2018-06-11T11:37:43.062Z,7.30
2018-06-11T11:40:12.465Z,6.83
2018-06-11T11:42:41.943Z,8.20
2018-06-11T11:45:09.973Z,6.90
2018-06-11T11:47:38.043Z,8.60
2018-06-11T11:50:06.337Z,8.70
2018-06-11T11:52:35.270Z,8.47
2018-06-11T11:55:03.643Z,6.40
2018-06-11T11:57:32.164Z,7.20
2018-06-11T12:00:00.213Z,7.17
2018-06-11T12:02:28.783Z,6.83
2018-06-11T12:04:56.985Z,6.83
2018-06-11T12:07:25.644Z,6.93
2018-06-11T12:09:53.811Z,6.40
2018-06-11T12:12:22.560Z,8.47
2018-06-11T12:14:50.632Z,6.80
2018-06-11T12:17:18.814Z,5.83
2018-06-11T12:19:47.075Z,5.90
2018-06-11T12:22:15.155Z,5.47
2018-06-11T12:24:43.149Z,5.83
2018-06-11T12:27:11.378Z,7.10
2018-06-11T12:29:39.428Z,5.40
2018-06-11T12:32:08.217Z,6.53
2018-06-11T12:34:36.369Z,5.77
2018-06-11T12:37:04.704Z,6.77
2018-06-11T12:52:27.766Z,6.50
2018-06-11T12:54:55.766Z,6.70
2018-06-11T13:00:43.782Z,6.53
2018-06-11T13:03:11.986Z,5.93
2018-06-11T13:05:40.013Z,5.30
2018-06-11T13:08:08.886Z,6.20
2018-06-11T13:10:37.057Z,5.87
2018-06-11T13:13:05.462Z,6.30
2018-06-11T13:15:33.464Z,6.47
2018-06-11T13:18:01.687Z,5.70
2018-06-11T13:20:30.279Z,6.13
2018-06-11T13:22:59.096Z,5.90
2018-06-11T13:25:30.076Z,6.50
2018-06-11T13:27:58.101Z,3.93
2018-06-11T13:30:27.381Z,4.43
2018-06-11T13:32:57.947Z,5.27
2018-06-11T13:35:26.126Z,4.93
2018-06-11T13:37:55.090Z,5.20
2018-06-11T13:40:24.687Z,4.33
2018-06-11T13:42:56.775Z,4.47
2018-06-11T13:45:35.349Z,5.70
2018-06-11T13:48:04.944Z,5.40
2018-06-11T13:50:35.173Z,4.13
2018-06-11T13:53:04.772Z,4.67
2018-06-11T13:55:33.433Z,4.50
2018-06-11T13:58:02.448Z,5.50
2018-06-11T14:00:35.418Z,5.10
2018-06-11T14:03:03.689Z,4.13
2018-06-11T14:05:31.701Z,5.43
2018-06-11T14:08:00.414Z,5.00
2018-06-11T14:10:29.183Z,6.20
2018-06-11T14:13:09.227Z,4.00
2018-06-11T14:16:12.787Z,5.73
2018-06-11T14:18:41.225Z,4.20
2018-06-11T14:21:09.242Z,4.40
2018-06-11T14:23:37.294Z,4.50
2018-06-11T14:26:05.528Z,4.50
2018-06-11T14:28:34.060Z,6.07
2018-06-11T14:31:04.225Z,4.43
2018-06-11T14:33:32.357Z,3.80
2018-06-11T14:36:01.625Z,4.17
2018-06-11T14:38:30.644Z,4.40
2018-06-11T14:40:58.689Z,3.50
2018-06-11T14:43:26.790Z,3.70
2018-06-11T14:45:54.963Z,3.97
2018-06-11T14:48:23.564Z,3.60
2018-06-11T14:50:52.138Z,2.80
2018-06-11T14:53:21.192Z,2.47
2018-06-11T14:55:49.301Z,3.40
2018-06-11T14:58:17.392Z,2.93
2018-06-11T15:00:48.521Z,3.23
2018-06-11T15:03:16.674Z,3.47
2018-06-11T15:05:45.378Z,3.13
2018-06-11T15:08:14.709Z,4.30
2018-06-11T15:10:42.737Z,5.13
2018-06-11T15:13:11.405Z,4.27
2018-06-11T15:15:42.461Z,3.53
2018-06-11T15:18:12.216Z,4.50
2018-06-11T15:20:41.361Z,4.23
2018-06-11T15:23:09.574Z,4.70
2018-06-11T15:25:37.674Z,5.50
2018-06-11T15:28:06.463Z,5.00
2018-06-11T15:30:35.301Z,5.20
2018-06-11T15:33:03.297Z,4.50
2018-06-11T15:35:31.445Z,5.17
2018-06-11T15:37:59.506Z,4.70
2018-06-11T15:40:27.648Z,4.90
2018-06-11T15:42:55.734Z,4.70
2018-06-11T15:45:23.900Z,3.87
2018-06-11T15:47:52.010Z,3.80
2018-06-11T15:50:20.306Z,3.77
2018-06-11T15:52:49.568Z,3.73
2018-06-11T15:55:18.497Z,4.80
2018-06-11T15:57:46.513Z,4.30
2018-06-11T16:00:14.544Z,3.70
2018-06-11T16:02:43.169Z,4.00
2018-06-11T16:05:11.909Z,3.90
2018-06-11T16:07:39.933Z,4.23
2018-06-11T16:10:09.570Z,4.70
2018-06-11T16:12:37.582Z,4.03
2018-06-11T16:15:06.889Z,3.70
2018-06-11T16:17:35.227Z,4.00
2018-06-11T16:20:04.623Z,3.77
2018-06-11T16:25:49.289Z,3.97
2018-06-11T16:28:23.585Z,4.37
2018-06-11T16:30:51.802Z,4.40
2018-06-11T16:33:20.327Z,4.70
2018-06-11T16:35:48.714Z,4.20
2018-06-11T16:38:16.723Z,4.43
2018-06-11T16:40:44.756Z,4.63
2018-06-11T16:43:12.924Z,3.80
2018-06-11T16:51:25.692Z,4.30
2018-06-11T16:53:53.788Z,4.77
2018-06-11T16:56:21.906Z,3.70
2018-06-11T16:58:50.028Z,3.93
2018-06-11T17:01:18.112Z,3.73
2018-06-11T17:03:46.127Z,4.30
2018-06-11T17:06:14.352Z,4.00
2018-06-11T17:08:42.476Z,4.03
2018-06-11T17:11:10.514Z,4.07
2018-06-11T17:13:38.552Z,3.67
2018-06-11T17:16:06.690Z,3.80
2018-06-11T17:18:34.737Z,3.30
2018-06-11T17:21:02.786Z,3.77
2018-06-11T17:23:30.864Z,3.30
2018-06-11T17:26:03.750Z,3.10
2018-06-11T17:28:32.625Z,3.10
2018-06-11T17:31:00.650Z,3.50
2018-06-11T17:33:28.810Z,3.33
2018-06-11T17:35:56.873Z,3.00
2018-06-11T17:38:25.369Z,2.70
2018-06-11T17:40:53.437Z,3.10
2018-06-11T17:43:21.474Z,2.37
2018-06-11T17:45:49.533Z,3.13
2018-06-11T17:48:21.700Z,3.20
2018-06-11T17:50:49.731Z,3.20
2018-06-11T17:53:18.002Z,2.73
2018-06-11T17:55:46.081Z,2.43
2018-06-11T17:58:14.111Z,3.57
2018-06-11T18:00:42.375Z,3.07
2018-06-11T18:03:10.421Z,3.00
2018-06-11T18:05:38.488Z,3.33
2018-06-11T18:08:06.505Z,3.03
2018-06-11T18:10:34.547Z,3.20
2018-06-11T18:13:02.675Z,3.50
2018-06-11T18:15:30.698Z,3.57
2018-06-11T18:17:58.735Z,3.50
2018-06-11T18:20:26.806Z,6.30
2018-06-11T18:22:54.895Z,4.20
2018-06-11T18:35:24.864Z,4.60
2018-06-11T18:37:53.215Z,3.53
2018-06-11T18:40:21.402Z,3.63
2018-06-11T18:42:49.600Z,4.23
2018-06-11T18:45:17.769Z,3.70
2018-06-11T18:47:46.035Z,3.63
2018-06-11T18:50:14.301Z,4.00
2018-06-11T18:52:43.323Z,2.90
2018-06-11T18:55:11.889Z,3.10
2018-06-11T18:57:41.516Z,2.80
2018-06-11T19:00:09.856Z,3.53
2018-06-11T19:02:38.118Z,5.40
2018-06-11T19:05:06.980Z,3.57
2018-06-11T19:07:35.385Z,3.43
2018-06-11T19:10:04.362Z,3.20
2018-06-11T19:12:32.791Z,3.10
2018-06-11T19:15:01.874Z,3.30
2018-06-11T19:17:30.684Z,2.60
2018-06-11T19:19:58.946Z,3.50
2018-06-11T19:22:28.331Z,3.60
2018-06-11T19:24:56.717Z,3.70
2018-06-11T19:27:25.474Z,3.77
2018-06-11T19:29:53.714Z,3.83
2018-06-11T19:32:21.974Z,3.90
2018-06-11T19:34:50.346Z,3.13
2018-06-11T19:37:18.627Z,3.73
2018-06-11T19:39:46.988Z,3.50
2018-06-11T19:42:15.788Z,3.87
2018-06-11T19:44:44.012Z,3.30
2018-06-11T19:47:13.082Z,3.93
2018-06-11T19:49:41.406Z,4.00
2018-06-11T19:52:10.559Z,3.90
2018-06-11T19:54:39.066Z,3.50
2018-06-11T19:57:07.633Z,4.40
2018-06-11T19:59:36.691Z,3.67
2018-06-11T20:02:06.003Z,3.87
2018-06-11T20:04:34.355Z,4.20
2018-06-11T20:07:03.245Z,3.60
2018-06-11T20:09:31.577Z,3.47
2018-06-11T20:12:00.680Z,4.57
2018-06-11T20:14:29.268Z,4.17
2018-06-11T20:16:58.555Z,3.93
2018-06-11T20:19:27.225Z,4.87
2018-06-11T20:21:55.846Z,4.20
2018-06-11T20:24:24.215Z,5.53
2018-06-11T20:26:52.523Z,4.70
2018-06-11T20:39:00.802Z,4.90
2018-06-11T20:51:09.051Z,5.20
2018-06-11T20:53:39.897Z,4.97
2018-06-11T20:56:09.853Z,5.93
2018-06-11T20:58:38.153Z,5.50
2018-06-11T21:01:06.816Z,5.30
2018-06-11T21:03:34.893Z,5.63
2018-06-11T21:06:03.632Z,5.87
2018-06-11T21:08:31.726Z,5.33
2018-06-11T21:11:00.042Z,5.90
2018-06-11T21:13:28.116Z,5.90
2018-06-11T21:15:56.255Z,5.00
2018-06-11T21:18:24.551Z,5.33
2018-06-11T21:20:52.638Z,5.23
2018-06-11T21:23:20.691Z,6.23
2018-06-11T21:25:48.775Z,6.37
2018-06-11T21:28:18.087Z,5.53
2018-06-11T21:30:46.248Z,6.10
2018-06-11T21:33:14.442Z,6.73
2018-06-11T21:35:42.675Z,5.97
2018-06-11T21:38:12.469Z,6.17
2018-06-11T21:40:40.514Z,5.20
2018-06-11T21:43:09.854Z,5.60
2018-06-11T21:45:38.763Z,5.93
2018-06-11T21:48:08.376Z,5.23
2018-06-11T21:50:36.442Z,5.60
2018-06-11T21:53:04.531Z,5.43
2018-06-11T21:55:32.582Z,5.70
2018-06-11T21:58:02.541Z,5.70
2018-06-11T22:00:30.614Z,5.90
2018-06-11T22:02:58.661Z,6.03
2018-06-11T22:05:27.579Z,6.10
2018-06-11T22:07:55.838Z,6.10
2018-06-11T22:10:23.895Z,5.67
2018-06-11T22:12:52.047Z,5.20
2018-06-11T22:15:20.217Z,5.80
2018-06-11T22:17:49.149Z,6.27
2018-06-11T22:20:17.500Z,6.00
2018-06-11T22:22:45.515Z,5.60
2018-06-11T22:25:14.642Z,5.87
2018-06-11T22:27:43.197Z,6.00
2018-06-11T22:30:11.212Z,5.93
2018-06-11T22:32:39.258Z,6.20
2018-06-11T22:35:07.317Z,6.30
2018-06-11T22:37:35.341Z,5.97
2018-06-11T22:40:04.881Z,6.27
2018-06-11T22:42:32.955Z,6.87
2018-06-11T22:45:00.982Z,6.17
2018-06-11T22:47:29.046Z,7.27
2018-06-11T22:49:59.688Z,6.50
2018-06-11T22:52:28.770Z,6.40
2018-06-11T22:54:57.400Z,6.47
2018-06-11T22:57:25.419Z,6.70
2018-06-11T22:59:54.227Z,6.67
2018-06-11T23:02:22.315Z,6.20
2018-06-11T23:04:50.545Z,6.00
2018-06-11T23:07:18.569Z,7.20
2018-06-11T23:09:46.612Z,6.80
2018-06-11T23:12:15.820Z,6.63
2018-06-11T23:14:44.627Z,6.43
2018-06-11T23:17:12.657Z,7.10
2018-06-11T23:19:40.993Z,6.40
2018-06-11T23:22:09.768Z,5.97
2018-06-11T23:24:38.061Z,6.73
2018-06-11T23:27:06.309Z,6.73
2018-06-11T23:29:34.324Z,7.37
2018-06-11T23:32:02.961Z,6.40
2018-06-11T23:34:30.968Z,7.03
2018-06-11T23:36:59.810Z,6.97
2018-06-11T23:39:29.652Z,7.07
2018-06-11T23:41:58.150Z,6.73
2018-06-11T23:44:26.136Z,6.63
2018-06-11T23:46:54.207Z,6.70
2018-06-11T23:49:23.027Z,6.80
2018-06-11T23:51:51.040Z,6.40
2018-06-11T23:54:19.123Z,7.47
2018-06-11T23:56:47.125Z,7.20
2018-06-11T23:59:15.211Z,6.57
